Athol, Massachusetts
Current Conditions -  °F | °C
As of 5:52 PM on Sunday 21 Dec 2014 (Local Time) from KORE Reporting Station
Overcast Overcast  
Wind Chill: 32°   Ceiling: 1800
Heat Index: 32°   Visibility: 10mi
Dew Point: 29°   Wind: 3mph
Humidity: 88%   Direction: 310°NW
Pressure: 30.32"   Gusts: NA
Location:  42.59°N, 72.23°W
Report Text: KORE 212252Z AUTO 31003KT 10SM OVC018 00/M02 A3032 RMK AO2 SLP274 T00001017
Loading
Personal Weather Stations






























Interactive Weather Map New forecast layout! Learn more

10-Day Weather Forecast

Advertisements
Track Severe Weather on mobile